Benoît Fournier

Olheiro-Chefe - Angers SCO
25 Jun 2028
Domingo
Processo

Personalidade

Adaptabilidade (1) Ambição (20) Controvérsia (1) Lealdade (9) Pressão (13) Profissionalismo (19) Espírito Esportivo (10) Temperamento (16)

Perfil

Estilo de Treinamento Democrático
Licença Nacional B
Determinação 8
Gestão de Pessoas 10
Motivação 12
Disciplina 4
Satisfação no Trabalho
100%
Fadiga
0%
Função Olheiro-Chefe
Salário 93.8K p/s
Contrato 14.03.2029

Desempenho

Comportamento Bom
Eficácia do Treinamento
41%
Desenvolvimento do Jogador
40%
Prevenção de Lesões
65%
Implementação Tática
25%

Eventos Recentes

Participou de uma reunião de recrutamento agora
Participou de uma reunião de recrutamento 7d atrás
Participou de uma reunião de recrutamento 7d atrás
Apresentou um dossiê à direção 7d atrás
Participou de uma reunião de recrutamento 14d atrás
Participou de uma reunião de recrutamento 14d atrás
Avaliou um jogador 21d atrás
Avaliou um jogador 21d atrás

Monitorando agora

137
Jogador Clube Status Habilidade Confiança Observado Última observação Último voto
Mouez Hassen Red Star Perdido 111 / 109 83% 1 12.06.2028 -
Henrik Meister Pisa Ativo 134 / 126 40% 1 31.05.2028 -
Tyreece Campbell Charlton Athletic Ativo 125 / 128 40% 1 31.05.2028 -
Musa Barrow ES Setif Ativo 139 / 133 40% 1 31.05.2028 -
Lucas Høgsberg RC Strasbourg Ativo 147 / 138 40% 16 30.05.2028 -
Jason Witsel PSV Ativo 127 / 131 40% 1 30.05.2028 -
Josh King Newcastle United Ativo 141 / 152 40% 8 29.05.2028 -
Trey Nyoni Rotherham United Ativo 136 / 142 40% 6 29.05.2028 -
Daniel Banjaqui Benfica Ativo 120 / 125 40% 3 27.05.2028 -
Martim Cunha Porto Ativo 107 / 112 40% 6 27.05.2028 -
Ayden Heaven Portsmouth Ativo 145 / 147 40% 11 23.05.2028 -
Andrija Bulatović Chamois Niortais Ativo 124 / 133 40% 6 23.05.2028 -
Bernardo Lima Porto Ativo 111 / 120 40% 4 23.05.2028 -
Riquelme Thompson-Jones Accrington Stanley Ativo 108 / 117 40% 4 22.05.2028 -
Kelian Le Pironnec Mirandés Ativo 95 / 102 40% 4 22.05.2028 -
Amine Boukamir Charleroi Ativo 104 / 104 40% 7 20.05.2028 -
Christos Mouzakitis Hull City Ativo 137 / 138 40% 3 19.05.2028 -
Abubakar Adams Aduana Stars Ativo 88 / 84 40% 1 16.05.2028 -
Tylel Tati Chamois Niortais Ativo 127 / 124 40% 3 15.05.2028 -
Kiani Inge Groningen Ativo 113 / 126 40% 2 15.05.2028 -
Honest Ahanor Atalanta Ativo 133 / 136 40% 5 14.05.2028 -
Josh Nichols Oldham Athletic Ativo 124 / 133 40% 9 13.05.2028 -
Tyler Fletcher Rotherham United Ativo 107 / 111 40% 3 11.05.2028 -
Olivier Leroux Mouscron Ativo 104 / 109 40% 9 09.05.2028 -
Khalis Merah Olympique Lyonnais Ativo 134 / 143 40% 1 01.05.2028 -
Adnan Nainggolan KV Oostende Ativo 106 / 111 40% 9 26.04.2028 -
Josh Acheampong Everton Ativo 140 / 149 40% 5 26.04.2028 -
Andrey Ivlev Nizhniy Novgorod Ativo 107 / 114 40% 1 24.04.2028 -
Giovanni Leoni Lincoln City Ativo 137 / 146 40% 5 10.04.2028 -
Jan Bürger Northampton Town Ativo 119 / 123 40% 2 07.04.2028 -
Jorthy Mokio ADO Den Haag Ativo 133 / 139 40% 1 06.04.2028 -
Thulani Manyama SuperSport United Ativo 112 / 128 40% 1 07.03.2028 -
Nhoa Sangui AS Nancy Ativo 132 / 123 40% 1 01.02.2028 -
Bitello Universidad de Chile Ativo 135 / 135 68% 1 01.01.2028 -
Roberto Alvarado Borussia Mönchengladbach Ativo 139 / 139 66% 1 01.01.2028 -
Lucas Camejo River Plate Ativo 89 / 99 40% 6 07.12.2027 -
Daniel Idoko Ikorodu City Ativo 88 / 83 40% 6 07.12.2027 -
Hosea Michael Remo Stars Ativo 93 / 92 40% 10 06.12.2027 -
Ollie Scarles West Ham United Ativo 136 / 135 40% 4 05.12.2027 -
Sebastián Ramírez Aguilas Doradas Ativo 109 / 114 40% 7 05.12.2027 -
Olaniyi Saheed Kwara United Ativo 93 / 99 40% 4 05.12.2027 -
Onyeuche Ujunwa Ikorodu City Ativo 82 / 81 40% 5 01.12.2027 -
Juan Camilo Córdoba Deportivo Pereira Ativo 87 / 96 40% 6 29.11.2027 -
David Damboama El-Kanemi Warriors Ativo 87 / 100 40% 3 27.11.2027 -
Nahuel Leivas Montevideo City Torque Ativo 104 / 115 40% 3 27.11.2027 -
Matias Siltanen Malmo FF Ativo 132 / 116 40% 8 26.11.2027 -
Mohamed Moussa Koïta Mathare United Ativo 103 / 89 40% 7 25.11.2027 -
Alpha Touré FC Metz Ativo 120 / 127 40% 3 24.11.2027 -
Archie Gray Southampton Ativo 151 / 160 40% 4 24.11.2027 -
Vinícius Lira São Paulo Ativo 117 / 116 40% 8 21.11.2027 -
Joel Ezra Enyimba Ativo 90 / 114 40% 6 10.11.2027 -
Gideon Manaseh Ikorodu City Ativo 92 / 108 40% 2 08.11.2027 -
Victor Hernandez Santa Fe Ativo 121 / 119 40% 7 07.11.2027 -
Colin Guske Orlando City Ativo 93 / 110 40% 3 07.11.2027 -
Godwin Oham Warri Wolves Ativo 84 / 87 40% 3 30.10.2027 -
Adrian Skogmar Malmo FF Ativo 115 / 123 40% 2 29.10.2027 -
Felipe Faúndez O'Higgins Ativo 98 / 101 40% 4 22.10.2027 -
Esteban de Lima Tacuarembo Ativo 91 / 104 40% 3 20.10.2027 -
Santiago Murillo Alianza Petrolera Ativo 125 / 140 40% 6 16.10.2027 -
Issa Yusuf Shooting Stars Ativo 81 / 102 40% 3 12.10.2027 -
Chibueze Oputa Rangers International Ativo 82 / 100 40% 3 07.10.2027 -
Ignacio Fernández Boston River Ativo 91 / 107 40% 1 05.10.2027 -
Alejandro Leiva Patronato Ativo 94 / 94 40% 3 21.09.2027 -
Mpho Khethang FC Diarra Ativo 89 / 102 40% 1 21.09.2027 -
Ilyas Ansah Hull City Ativo 136 / 144 40% 2 05.07.2027 -
Ismaïla Sarr Crystal Palace Ativo 150 / 155 40% 1 05.07.2027 -
Yassine Khalifi Charleroi Ativo 103 / 114 40% 4 02.06.2027 -
Erick Sánchez RC Lens Ativo 139 / 139 68% 1 01.06.2027 -
Kota Tawaratsumida Albirex Niigata Ativo 133 / 136 66% 1 01.06.2027 -
Jenson Jones Walsall Ativo 97 / 100 40% 2 31.05.2027 -
Lucas Mbamba Westerlo Ativo 84 / 88 40% 1 30.05.2027 -
Louis Leroux FC Nantes Ativo 121 / 129 40% 1 29.05.2027 -
Caleb Yirenkyi Coventry City Ativo 135 / 147 40% 2 28.05.2027 -
Enzo Koffi Olympique de Marseille Ativo 110 / 119 40% 2 25.05.2027 -
Gonçalo Oliveira Benfica Ativo 106 / 109 40% 2 23.05.2027 -
Zane Albarus Shrewsbury Town Ativo 94 / 92 40% 1 23.05.2027 -
Cheveyo Tsawa Club Brugge Ativo 120 / 134 40% 4 21.05.2027 -
Victor Froholdt Porto Ativo 148 / 151 40% 2 20.05.2027 -
Kazunari Kita Real Sociedad Ativo 96 / 100 40% 2 20.05.2027 -
Pape Diong Westerlo Ativo 112 / 128 40% 1 12.05.2027 -
João Teixeira Porto Ativo 106 / 110 40% 1 03.05.2027 -
Mario Stroeykens Anderlecht Ativo 132 / 129 40% 1 19.01.2027 -
Rafael Navarro Famalicao Ativo 131 / 125 40% 3 01.01.2027 -
Luiz Henrique AS Roma Ativo 142 / 143 68% 1 01.01.2027 -
Marcel Ruiz Crystal Palace Ativo 140 / 141 68% 1 01.01.2027 -
Gonzalo Fulham Ativo 140 / 148 40% 2 30.12.2026 -
Yousef Salech Cardiff City Ativo 125 / 132 40% 2 29.12.2026 -
Rodrigo Muniz Fulham Ativo 139 / 144 40% 2 29.12.2026 -
Roberto Fernández Braga Ativo 140 / 137 40% 6 28.12.2026 Observar
Brent Gabriel Zulte Waregem Ativo 116 / 118 40% 2 27.12.2026 -
Yehvann Diouf OGC Nice Ativo 144 / 146 40% 2 27.12.2026 -
Georginio Rutter Brighton Ativo 151 / 148 40% 1 27.12.2026 -
Lucas Lund Viborg Ativo 124 / 126 40% 1 26.12.2026 -
Wilson Isidor Sunderland Ativo 135 / 140 40% 1 23.12.2026 -
Giacomo Raspadori Atalanta Ativo 151 / 148 40% 1 20.12.2026 -
Chukwubuikem Ikwuemesi OH Leuven Ativo 116 / 123 40% 6 19.12.2026 -
Robin Roefs Sunderland Ativo 145 / 140 40% 3 19.12.2026 -
Joe Gelhardt Hull City Ativo 127 / 135 40% 3 19.12.2026 -
Mile Svilar AS Roma Ativo 165 / 156 40% 3 19.12.2026 -
Justo Giani Umraniyespor Ativo 124 / 129 40% 2 19.12.2026 -
Jonathan Fischer FC Metz Ativo 127 / 136 40% 1 19.12.2026 -
Nicolò Tresoldi Club Brugge Ativo 134 / 140 40% 5 16.12.2026 -
Esteban Lepaul Stade Rennais Ativo 138 / 128 40% 1 10.12.2026 -
Thiago Brentford Ativo 151 / 152 40% 4 09.12.2026 -
Luca Koleosho Paris FC Ativo 128 / 125 40% 1 09.12.2026 -
Ryotaro Araki Sint-Truiden Ativo 118 / 121 40% 3 08.12.2026 -
N'Golo Traoré Stade Malien Ativo 97 / 90 40% 1 02.12.2026 -
Luca Dias Nimes Ativo 110 / 100 40% 1 02.12.2026 -
Raúl Rangel Braga Ativo 137 / 136 40% 1 30.11.2026 -
Guillaume Restes Toulouse FC Ativo 136 / 144 40% 1 30.11.2026 -
James Trafford Leeds United Ativo 145 / 144 40% 1 30.11.2026 -
Nicolas Jackson Aston Villa Ativo 145 / 149 40% 4 28.11.2026 -
Rafiu Durosinmi Racing Genk Ativo 133 / 134 40% 5 27.11.2026 -
Tyrese Campbell Sheffield United Ativo 133 / 121 40% 2 22.11.2026 -
Sorriso Famalicao Ativo 131 / 132 40% 1 21.11.2026 -
Pau Víctor Braga Ativo 135 / 140 40% 3 18.11.2026 -
Fran Vieites Walsall Ativo 121 / 117 40% 1 13.11.2026 -
Mamadou Camara Stade Lavallois Perdido 115 / 115 40% 1 08.11.2026 -
Mads Hermansen West Ham United Ativo 139 / 141 40% 1 06.11.2026 -
Radek Vítek Middlesbrough Ativo 135 / 134 40% 2 03.11.2026 -
Zion Suzuki Aston Villa Ativo 137 / 146 40% 2 03.11.2026 -
Aune Heggebø West Bromwich Albion Ativo 124 / 119 40% 1 30.10.2026 -
Talles Magno New York City Ativo 129 / 127 40% 2 27.10.2026 -
Murphy Cooper Plymouth Argyle Ativo 108 / 105 40% 1 26.10.2026 -
Eddie Nketiah Crystal Palace Ativo 141 / 142 40% 1 26.10.2026 -
Igor Paixão Olympique de Marseille Ativo 146 / 152 40% 1 25.10.2026 -
Germán Berterame Inter Miami CF Ativo 128 / 121 40% 1 23.10.2026 -
Ramiro Ruiz Rodríguez Atlético Tucumán Ativo 122 / 126 40% 1 22.10.2026 -
Alejandro Piedrahita Deportivo Pereira Ativo 122 / 115 40% 2 19.10.2026 -
Grégoire Coudert Burnley Ativo 125 / 125 40% 1 19.10.2026 -
Alkalifa Coulibaly Onze Createurs Ativo 101 / 98 40% 1 19.10.2026 -
Luis Ingolotti Atlético Tucumán Ativo 118 / 116 40% 1 18.10.2026 -
Tadeo Allende Inter Miami CF Ativo 129 / 110 40% 1 10.10.2026 -
Adriano Bertaccini Anderlecht Ativo 123 / 125 40% 1 09.10.2026 -
Berke Özer LOSC Lille Ativo 135 / 137 40% 1 09.10.2026 -
Boubacar Kamara Aston Villa Ativo 162 / 170 40% 1 01.08.2026 -
Jérémy Doku Manchester City Ativo 156 / 165 40% 1 01.08.2026 -